createdAt,value
2023-03-02T00:00:01.401Z,102175.72
2023-03-02T00:01:01.919Z,102175.80
2023-03-02T00:02:02.359Z,102175.97
2023-03-02T00:03:02.471Z,102175.05
2023-03-02T00:04:03.204Z,102174.59
2023-03-02T00:05:03.082Z,102173.91
2023-03-02T00:06:03.721Z,102173.55
2023-03-02T00:07:04.324Z,102173.03
2023-03-02T00:08:04.942Z,102172.45
2023-03-02T00:09:05.588Z,102172.25
2023-03-02T00:10:05.665Z,102171.42
2023-03-02T00:11:06.143Z,102170.77
2023-03-02T00:12:06.804Z,102170.64
2023-03-02T00:13:07.580Z,102170.55
2023-03-02T00:14:08.355Z,102170.45
2023-03-02T00:15:09.303Z,102170.10
2023-03-02T00:16:10.117Z,102169.77
2023-03-02T00:17:10.968Z,102169.45
2023-03-02T00:18:11.726Z,102169.25
2023-03-02T00:19:11.936Z,102169.42
2023-03-02T00:19:22.684Z,102188.91
2023-03-02T00:20:23.609Z,102162.61
2023-03-02T00:21:23.659Z,102162.77
2023-03-02T00:22:24.655Z,102163.02
2023-03-02T00:23:25.128Z,102163.34
2023-03-02T00:24:25.951Z,102163.02
2023-03-02T00:25:26.148Z,102162.98
2023-03-02T00:26:26.894Z,102163.06
2023-03-02T00:27:27.712Z,102162.97
2023-03-02T00:28:28.420Z,102162.68
2023-03-02T00:29:29.552Z,102162.19
2023-03-02T00:30:29.505Z,102161.90
2023-03-02T00:31:29.632Z,102161.98
2023-03-02T00:32:30.166Z,102161.12
2023-03-02T00:33:30.220Z,102160.96
2023-03-02T00:34:31.006Z,102160.04
2023-03-02T00:35:31.623Z,102159.09
2023-03-02T00:36:31.881Z,102158.99
2023-03-02T00:37:32.559Z,102157.81
2023-03-02T00:38:33.451Z,102156.95
2023-03-02T00:39:34.080Z,102155.94
2023-03-02T00:40:34.838Z,102155.08
2023-03-02T00:41:35.350Z,102154.16
2023-03-02T00:42:36.079Z,102153.31
2023-03-02T00:43:36.813Z,102152.89
2023-03-02T00:44:37.266Z,102152.30
2023-03-02T00:45:38.112Z,102151.54
2023-03-02T00:46:39.095Z,102151.77
2023-03-02T00:47:41.044Z,102151.12
2023-03-02T00:48:40.335Z,102150.59
2023-03-02T00:49:40.975Z,102150.16
2023-03-02T00:50:41.375Z,102149.44
2023-03-02T00:50:50.530Z,102171.66
2023-03-02T00:51:51.245Z,102148.81
2023-03-02T00:52:51.210Z,102149.14
2023-03-02T00:53:51.969Z,102148.91
2023-03-02T00:54:52.630Z,102149.11
2023-03-02T00:55:53.540Z,102149.17
2023-03-02T00:56:54.308Z,102149.10
2023-03-02T00:57:54.598Z,102149.86
2023-03-02T00:58:54.585Z,102149.96
2023-03-02T00:59:54.999Z,102150.28
2023-03-02T01:00:55.512Z,102150.28
2023-03-02T01:01:55.659Z,102150.94
2023-03-02T01:02:55.786Z,102151.14
2023-03-02T01:03:55.764Z,102151.96
2023-03-02T01:04:55.833Z,102152.39
2023-03-02T01:05:56.286Z,102152.82
2023-03-02T01:06:57.209Z,102153.31
2023-03-02T01:07:57.808Z,102154.01
2023-03-02T01:08:58.726Z,102154.27
2023-03-02T01:09:59.467Z,102154.83
2023-03-02T01:11:00.182Z,102154.83
2023-03-02T01:12:00.973Z,102154.50
2023-03-02T01:13:01.908Z,102155.09
2023-03-02T01:14:02.757Z,102155.36
2023-03-02T01:15:03.228Z,102155.42
2023-03-02T01:16:03.772Z,102155.42
2023-03-02T01:17:04.074Z,102156.18
2023-03-02T01:18:04.622Z,102156.52
2023-03-02T01:19:05.247Z,102156.84
2023-03-02T01:20:05.866Z,102157.02
2023-03-02T01:21:06.572Z,102157.58
2023-03-02T01:22:07.110Z,102157.84
2023-03-02T01:23:07.075Z,102157.74
2023-03-02T01:23:16.335Z,102179.25
2023-03-02T01:24:16.926Z,102163.55
2023-03-02T01:25:17.615Z,102163.22
2023-03-02T01:26:17.666Z,102162.72
2023-03-02T01:27:19.353Z,102162.95
2023-03-02T01:28:18.686Z,102162.80
2023-03-02T01:29:19.757Z,102162.30
2023-03-02T01:30:19.564Z,102161.56
2023-03-02T01:31:20.449Z,102161.39
2023-03-02T01:32:20.593Z,102161.32
2023-03-02T01:33:21.204Z,102161.16
2023-03-02T01:34:21.369Z,102161.22
2023-03-02T01:35:22.222Z,102161.38
2023-03-02T01:36:22.881Z,102160.98
2023-03-02T01:37:23.638Z,102160.56
2023-03-02T01:38:23.813Z,102160.13
2023-03-02T01:39:24.649Z,102159.73
2023-03-02T01:40:24.843Z,102159.23
2023-03-02T01:41:25.661Z,102157.88
2023-03-02T01:42:26.398Z,102157.29
2023-03-02T01:43:27.207Z,102156.46
2023-03-02T01:44:27.848Z,102155.77
2023-03-02T01:45:28.708Z,102154.78
2023-03-02T01:46:28.772Z,102153.59
2023-03-02T01:47:29.467Z,102152.44
2023-03-02T01:48:29.690Z,102151.67
2023-03-02T01:49:30.420Z,102150.19
2023-03-02T01:50:31.110Z,102149.09
2023-03-02T01:51:31.524Z,102147.67
2023-03-02T01:52:31.995Z,102146.77
2023-03-02T01:53:32.812Z,102145.35
2023-03-02T01:54:33.432Z,102143.92
2023-03-02T01:54:42.163Z,102148.17
2023-03-02T01:55:43.112Z,102128.03
2023-03-02T01:56:43.578Z,102127.59
2023-03-02T01:57:44.527Z,102127.44
2023-03-02T01:58:45.330Z,102127.58
2023-03-02T01:59:45.428Z,102128.08
2023-03-02T02:00:46.477Z,102128.41
2023-03-02T02:01:47.155Z,102129.00
2023-03-02T02:02:47.295Z,102129.27
2023-03-02T02:03:47.647Z,102130.09
2023-03-02T02:04:48.376Z,102130.42
2023-03-02T02:05:49.279Z,102130.59
2023-03-02T02:06:50.242Z,102131.52
2023-03-02T02:07:50.472Z,102131.25
2023-03-02T02:08:51.453Z,102131.41
2023-03-02T02:09:52.074Z,102131.75
2023-03-02T02:10:52.166Z,102131.02
2023-03-02T02:11:52.953Z,102130.69
2023-03-02T02:12:53.000Z,102130.75
2023-03-02T02:13:53.241Z,102130.09
2023-03-02T02:14:53.266Z,102130.02
2023-03-02T02:15:53.735Z,102130.09
2023-03-02T02:16:54.732Z,102130.19
2023-03-02T02:17:54.900Z,102129.66
2023-03-02T02:18:55.550Z,102128.64
2023-03-02T02:19:56.489Z,102128.65
2023-03-02T02:20:56.724Z,102128.30
2023-03-02T02:21:56.871Z,102127.61
2023-03-02T02:22:57.053Z,102126.56
2023-03-02T02:23:57.835Z,102126.14
2023-03-02T02:24:58.480Z,102125.36
2023-03-02T02:25:59.449Z,102124.17
2023-03-02T02:26:59.976Z,102123.26
2023-03-02T02:27:09.156Z,102123.61
2023-03-02T02:28:10.057Z,102102.48
2023-03-02T02:29:10.825Z,102102.09
2023-03-02T02:30:11.758Z,102102.42
2023-03-02T02:31:11.993Z,102102.49
2023-03-02T02:32:12.398Z,102102.23
2023-03-02T02:33:12.949Z,102101.41
2023-03-02T02:34:13.704Z,102101.48
2023-03-02T02:35:14.605Z,102100.06
2023-03-02T02:36:15.580Z,102098.94
2023-03-02T02:37:16.397Z,102098.34
2023-03-02T02:38:17.293Z,102096.47
2023-03-02T02:39:17.625Z,102095.23
2023-03-02T02:40:18.489Z,102093.19
2023-03-02T02:41:19.375Z,102091.44
2023-03-02T02:42:20.100Z,102090.25
2023-03-02T02:43:21.175Z,102088.14
2023-03-02T02:44:21.750Z,102086.20
2023-03-02T02:45:22.578Z,102083.79
2023-03-02T02:46:23.395Z,102081.25
2023-03-02T02:47:24.026Z,102079.01
2023-03-02T02:48:24.050Z,102076.56
2023-03-02T02:49:24.741Z,102074.55
2023-03-02T02:50:25.682Z,102072.54
2023-03-02T02:51:26.400Z,102070.52
2023-03-02T02:52:26.948Z,102069.11
2023-03-02T02:53:27.063Z,102067.26
2023-03-02T02:54:27.909Z,102065.74
2023-03-02T02:55:28.093Z,102064.42
2023-03-02T02:56:28.813Z,102062.84
2023-03-02T02:57:29.116Z,102061.31
2023-03-02T02:58:29.944Z,102061.05
2023-03-02T02:59:30.387Z,102060.39
2023-03-02T02:59:40.138Z,102068.92
2023-03-02T03:00:39.640Z,102046.23
2023-03-02T03:01:39.895Z,102046.41
2023-03-02T03:02:40.557Z,102046.07
2023-03-02T03:03:40.699Z,102046.50
2023-03-02T03:04:41.098Z,102046.99
2023-03-02T03:05:41.861Z,102047.52
2023-03-02T03:06:42.828Z,102048.51
2023-03-02T03:07:43.198Z,102048.94
2023-03-02T03:08:43.774Z,102049.43
2023-03-02T03:09:44.419Z,102049.76
2023-03-02T03:10:44.359Z,102050.19
2023-03-02T03:11:44.380Z,102050.62
2023-03-02T03:12:44.520Z,102051.05
2023-03-02T03:13:45.484Z,102050.87
2023-03-02T03:14:45.362Z,102050.78
2023-03-02T03:15:45.896Z,102051.54
2023-03-02T03:16:46.624Z,102051.04
2023-03-02T03:17:47.090Z,102051.30
2023-03-02T03:18:47.658Z,102051.14
2023-03-02T03:19:48.392Z,102050.80
2023-03-02T03:20:49.110Z,102050.73
2023-03-02T03:21:49.500Z,102050.50
2023-03-02T03:22:50.434Z,102050.34
2023-03-02T03:23:50.555Z,102050.73
2023-03-02T03:24:50.738Z,102050.40
2023-03-02T03:25:51.171Z,102050.40
2023-03-02T03:26:51.812Z,102050.40
2023-03-02T03:27:51.854Z,102051.06
2023-03-02T03:28:52.481Z,102051.33
2023-03-02T03:29:53.123Z,102051.83
2023-03-02T03:30:53.653Z,102052.16
2023-03-02T03:31:54.741Z,102052.32
2023-03-02T03:32:54.698Z,102053.05
2023-03-02T03:33:04.844Z,102078.11
2023-03-02T03:34:04.825Z,102062.30
2023-03-02T03:35:04.945Z,102061.86
2023-03-02T03:36:05.368Z,102061.44
2023-03-02T03:37:05.442Z,102061.94
2023-03-02T03:38:06.155Z,102061.67
2023-03-02T03:39:06.422Z,102061.84
2023-03-02T03:40:06.892Z,102062.24
2023-03-02T03:41:08.878Z,102061.88
2023-03-02T03:42:08.519Z,102061.98
2023-03-02T03:43:08.548Z,102061.95
2023-03-02T03:44:08.725Z,102061.86
2023-03-02T03:45:09.563Z,102061.80
2023-03-02T03:46:09.918Z,102061.44
2023-03-02T03:47:10.620Z,102061.20
2023-03-02T03:48:11.324Z,102060.94
2023-03-02T03:49:12.212Z,102060.52
2023-03-02T03:50:13.271Z,102060.25
2023-03-02T03:51:14.063Z,102060.25
2023-03-02T03:52:14.563Z,102060.48
2023-03-02T03:53:15.434Z,102060.98
2023-03-02T03:54:15.940Z,102061.16
2023-03-02T03:55:16.015Z,102061.22
2023-03-02T03:56:16.948Z,102061.46
2023-03-02T03:57:17.529Z,102061.37
2023-03-02T03:58:17.997Z,102061.84
2023-03-02T03:59:18.510Z,102062.34
2023-03-02T04:00:19.093Z,102062.31
2023-03-02T04:01:19.627Z,102063.04
2023-03-02T04:02:20.357Z,102062.55
2023-03-02T04:03:20.912Z,102063.70
2023-03-02T04:04:20.987Z,102062.95
2023-03-02T04:05:21.737Z,102062.69
2023-03-02T04:05:33.404Z,102036.19
2023-03-02T04:06:34.375Z,102064.33
2023-03-02T04:07:34.145Z,102063.83
2023-03-02T04:08:35.013Z,102063.23
2023-03-02T04:09:35.758Z,102062.66
2023-03-02T04:10:35.955Z,102062.43
2023-03-02T04:11:36.769Z,102061.94
2023-03-02T04:12:37.546Z,102061.77
2023-03-02T04:13:37.879Z,102061.94
2023-03-02T04:14:37.904Z,102062.17
2023-03-02T04:15:38.670Z,102062.23
2023-03-02T04:16:39.991Z,102061.73
2023-03-02T04:17:39.737Z,102061.81
2023-03-02T04:18:39.828Z,102061.81
2023-03-02T04:19:40.478Z,102062.28
2023-03-02T04:20:41.020Z,102062.95
2023-03-02T04:21:41.805Z,102063.84
2023-03-02T04:22:42.457Z,102064.18
2023-03-02T04:23:42.553Z,102064.91
2023-03-02T04:24:43.480Z,102065.31
2023-03-02T04:25:43.588Z,102065.88
2023-03-02T04:26:44.588Z,102066.31
2023-03-02T04:27:45.863Z,102067.05
2023-03-02T04:28:45.790Z,102067.61
2023-03-02T04:29:46.140Z,102068.60
2023-03-02T04:30:46.997Z,102068.84
2023-03-02T04:31:47.888Z,102069.16
2023-03-02T04:32:48.586Z,102069.59
2023-03-02T04:33:49.066Z,102069.66
2023-03-02T04:34:49.606Z,102070.23
2023-03-02T04:35:50.511Z,102070.66
2023-03-02T04:36:02.306Z,102044.48
2023-03-02T04:37:02.738Z,102073.76
2023-03-02T04:38:03.720Z,102073.76
2023-03-02T04:39:04.226Z,102073.99
2023-03-02T04:40:05.209Z,102074.00
2023-03-02T04:41:05.303Z,102074.73
2023-03-02T04:42:05.566Z,102075.13
2023-03-02T04:43:05.702Z,102075.30
2023-03-02T04:44:06.590Z,102076.03
2023-03-02T04:45:07.489Z,102076.53
2023-03-02T04:46:08.299Z,102077.02
2023-03-02T04:47:08.373Z,102077.26
2023-03-02T04:48:08.592Z,102077.82
2023-03-02T04:49:09.489Z,102078.48
2023-03-02T04:50:10.233Z,102078.42
2023-03-02T04:51:10.472Z,102079.16
2023-03-02T04:52:11.248Z,102079.22
2023-03-02T04:53:11.652Z,102079.45
2023-03-02T04:54:12.394Z,102079.79
2023-03-02T04:55:12.977Z,102079.42
2023-03-02T04:56:13.458Z,102078.94
2023-03-02T04:57:14.212Z,102079.50
2023-03-02T04:58:14.980Z,102079.83
2023-03-02T04:59:15.706Z,102079.41
2023-03-02T05:00:16.251Z,102079.28
2023-03-02T05:01:16.336Z,102078.69
2023-03-02T05:02:16.714Z,102078.59
2023-03-02T05:03:16.921Z,102078.59
2023-03-02T05:04:17.401Z,102077.81
2023-03-02T05:05:17.530Z,102077.63
2023-03-02T05:06:18.400Z,102077.27
2023-03-02T05:07:19.381Z,102077.25
2023-03-02T05:07:28.027Z,102090.78
2023-03-02T05:08:28.876Z,102074.95
2023-03-02T05:09:29.700Z,102074.53
2023-03-02T05:10:30.341Z,102074.20
2023-03-02T05:11:30.899Z,102073.77
2023-03-02T05:12:31.636Z,102073.77
2023-03-02T05:13:32.289Z,102072.45
2023-03-02T05:14:33.149Z,102072.28
2023-03-02T05:15:33.514Z,102071.85
2023-03-02T05:16:34.280Z,102071.75
2023-03-02T05:17:33.866Z,102071.92
2023-03-02T05:18:34.370Z,102071.49
2023-03-02T05:19:34.976Z,102071.33
2023-03-02T05:20:34.951Z,102071.16
2023-03-02T05:21:35.262Z,102071.00
2023-03-02T05:22:35.604Z,102070.92
2023-03-02T05:23:36.453Z,102070.10
2023-03-02T05:24:36.964Z,102069.27
2023-03-02T05:25:37.492Z,102068.95
2023-03-02T05:26:37.725Z,102068.45
2023-03-02T05:27:38.671Z,102068.28
2023-03-02T05:28:39.209Z,102067.78
2023-03-02T05:29:39.702Z,102067.78
2023-03-02T05:30:40.073Z,102067.95
2023-03-02T05:31:40.433Z,102067.52
2023-03-02T05:32:41.188Z,102067.36
2023-03-02T05:33:41.542Z,102067.09
2023-03-02T05:34:42.438Z,102067.33
2023-03-02T05:35:43.359Z,102067.33
2023-03-02T05:36:43.715Z,102067.73
2023-03-02T05:37:44.124Z,102067.66
2023-03-02T05:37:52.790Z,102084.70
2023-03-02T05:38:53.425Z,102067.91
2023-03-02T05:39:54.403Z,102067.31
2023-03-02T05:40:55.253Z,102067.37
2023-03-02T05:41:55.473Z,102067.61
2023-03-02T05:42:55.529Z,102067.45
2023-03-02T05:43:56.529Z,102067.35
2023-03-02T05:44:58.347Z,102066.43
2023-03-02T05:45:58.115Z,102066.66
2023-03-02T05:46:58.120Z,102066.63
2023-03-02T05:47:58.607Z,102066.47
2023-03-02T05:48:59.300Z,102066.31
2023-03-02T05:50:00.217Z,102066.02
2023-03-02T05:51:00.342Z,102066.19
2023-03-02T05:52:00.675Z,102066.81
2023-03-02T05:53:01.074Z,102066.65
2023-03-02T05:54:02.046Z,102066.66
2023-03-02T05:55:02.466Z,102067.13
2023-03-02T05:56:02.701Z,102067.02
2023-03-02T05:57:03.256Z,102067.42
2023-03-02T05:58:03.492Z,102067.27
2023-03-02T05:59:03.566Z,102067.80
2023-03-02T06:00:03.984Z,102068.20
2023-03-02T06:01:04.108Z,102068.53
2023-03-02T06:02:05.087Z,102068.50
2023-03-02T06:03:05.332Z,102069.00
2023-03-02T06:04:05.604Z,102069.23
2023-03-02T06:05:05.909Z,102069.27
2023-03-02T06:06:06.876Z,102069.45
2023-03-02T06:07:07.140Z,102070.08
2023-03-02T06:08:07.614Z,102070.08
2023-03-02T06:09:08.040Z,102069.28
2023-03-02T06:09:19.726Z,102089.65
2023-03-02T06:10:20.092Z,102061.41
2023-03-02T06:11:20.625Z,102062.13
2023-03-02T06:12:21.244Z,102062.30
2023-03-02T06:13:22.050Z,102062.53
2023-03-02T06:14:22.729Z,102062.80
2023-03-02T06:15:23.264Z,102062.77
2023-03-02T06:16:24.364Z,102063.59
2023-03-02T06:17:24.211Z,102063.90
2023-03-02T06:18:24.900Z,102064.23
2023-03-02T06:19:25.233Z,102064.36
2023-03-02T06:20:26.208Z,102064.59
2023-03-02T06:21:26.922Z,102064.77
2023-03-02T06:22:27.015Z,102064.86
2023-03-02T06:23:27.754Z,102065.03
2023-03-02T06:24:27.813Z,102065.42
2023-03-02T06:25:27.904Z,102065.59
2023-03-02T06:26:28.036Z,102066.61
2023-03-02T06:27:28.381Z,102067.21
2023-03-02T06:28:28.803Z,102068.36
2023-03-02T06:29:29.503Z,102069.12
2023-03-02T06:30:30.311Z,102069.88
2023-03-02T06:31:31.453Z,102070.45
2023-03-02T06:32:31.474Z,102071.47
2023-03-02T06:33:32.329Z,102071.97
2023-03-02T06:34:34.530Z,102072.89
2023-03-02T06:35:32.635Z,102073.72
2023-03-02T06:36:33.214Z,102074.64
2023-03-02T06:37:33.532Z,102075.47
2023-03-02T06:38:34.580Z,102075.66
2023-03-02T06:39:34.637Z,102076.06
2023-03-02T06:40:34.805Z,102076.39
2023-03-02T06:40:43.508Z,102109.34
2023-03-02T06:41:44.038Z,102089.17
2023-03-02T06:42:44.991Z,102088.61
2023-03-02T06:43:45.889Z,102088.45
2023-03-02T06:44:46.519Z,102088.24
2023-03-02T06:45:47.502Z,102087.91
2023-03-02T06:46:48.253Z,102087.51
2023-03-02T06:47:48.280Z,102087.53
2023-03-02T06:48:49.168Z,102087.14
2023-03-02T06:49:49.366Z,102087.13
2023-03-02T06:50:49.605Z,102087.33
2023-03-02T06:51:50.472Z,102087.27
2023-03-02T06:52:51.064Z,102086.80
2023-03-02T06:53:51.824Z,102087.06
2023-03-02T06:54:53.330Z,102086.56
2023-03-02T06:55:52.980Z,102086.16
2023-03-02T06:56:53.201Z,102086.02
2023-03-02T06:57:53.983Z,102085.52
2023-03-02T06:58:54.635Z,102085.22
2023-03-02T06:59:55.023Z,102085.41
2023-03-02T07:00:55.572Z,102085.41
2023-03-02T07:01:56.571Z,102085.34
2023-03-02T07:02:57.229Z,102084.78
2023-03-02T07:03:58.102Z,102084.97
2023-03-02T07:04:58.829Z,102084.47
2023-03-02T07:05:59.807Z,102084.17
2023-03-02T07:07:00.758Z,102084.37
2023-03-02T07:08:01.107Z,102084.03
2023-03-02T07:09:01.144Z,102084.03
2023-03-02T07:10:01.702Z,102084.39
2023-03-02T07:11:02.323Z,102084.42
2023-03-02T07:12:02.936Z,102084.45
2023-03-02T07:13:03.789Z,102084.64
2023-03-02T07:14:04.082Z,102084.23
2023-03-02T07:15:04.719Z,102084.09
2023-03-02T07:15:13.367Z,102105.33
2023-03-02T07:16:13.362Z,102078.04
2023-03-02T07:17:14.172Z,102078.04
2023-03-02T07:18:14.304Z,102078.30
2023-03-02T07:19:14.854Z,102078.56
2023-03-02T07:20:15.010Z,102079.16
2023-03-02T07:21:15.925Z,102079.08
2023-03-02T07:22:16.360Z,102079.34
2023-03-02T07:23:16.498Z,102079.08
2023-03-02T07:24:17.381Z,102079.42
2023-03-02T07:25:18.301Z,102079.91
2023-03-02T07:26:19.097Z,102080.48
2023-03-02T07:27:19.276Z,102081.30
2023-03-02T07:28:19.980Z,102081.91
2023-03-02T07:29:20.440Z,102082.13
2023-03-02T07:30:20.797Z,102083.06
2023-03-02T07:31:21.497Z,102083.48
2023-03-02T07:32:22.263Z,102083.48
2023-03-02T07:33:22.790Z,102083.66
2023-03-02T07:34:23.172Z,102083.84
2023-03-02T07:35:23.795Z,102084.44
2023-03-02T07:36:24.415Z,102084.44
2023-03-02T07:37:24.500Z,102084.39
2023-03-02T07:38:25.236Z,102085.15
2023-03-02T07:39:26.040Z,102085.17
2023-03-02T07:40:26.618Z,102085.62
2023-03-02T07:41:27.263Z,102085.48
2023-03-02T07:42:27.987Z,102085.05
2023-03-02T07:43:28.889Z,102085.06
2023-03-02T07:44:29.741Z,102085.05
2023-03-02T07:45:30.305Z,102084.84
2023-03-02T07:46:30.954Z,102085.13
2023-03-02T07:46:39.818Z,102103.75
2023-03-02T07:47:40.207Z,102089.47
2023-03-02T07:48:41.124Z,102089.36
2023-03-02T07:49:41.588Z,102089.12
2023-03-02T07:50:42.211Z,102088.99
2023-03-02T07:51:43.155Z,102088.92
2023-03-02T07:52:43.762Z,102088.52
2023-03-02T07:53:43.993Z,102088.71
2023-03-02T07:54:44.573Z,102088.64
2023-03-02T07:55:45.298Z,102089.06
2023-03-02T07:56:46.086Z,102088.86
2023-03-02T07:57:46.885Z,102089.05
2023-03-02T07:58:47.258Z,102089.14
2023-03-02T07:59:47.347Z,102089.33
2023-03-02T08:00:48.247Z,102089.59
2023-03-02T08:01:48.415Z,102090.04
2023-03-02T08:02:48.935Z,102090.55
2023-03-02T08:03:49.514Z,102090.84
2023-03-02T08:04:49.800Z,102091.20
2023-03-02T08:05:49.913Z,102091.58
2023-03-02T08:06:50.162Z,102091.93
2023-03-02T08:07:51.089Z,102091.81
2023-03-02T08:08:51.440Z,102092.34
2023-03-02T08:09:52.047Z,102092.13
2023-03-02T08:10:52.460Z,102092.31
2023-03-02T08:11:52.638Z,102093.06
2023-03-02T08:12:52.807Z,102092.66
2023-03-02T08:13:53.391Z,102092.86
2023-03-02T08:14:53.977Z,102093.05
2023-03-02T08:15:54.695Z,102093.00
2023-03-02T08:16:54.938Z,102093.16
2023-03-02T08:17:55.285Z,102093.35
2023-03-02T08:18:04.023Z,102101.41
2023-03-02T08:19:04.337Z,102106.16
2023-03-02T08:20:05.195Z,102105.83
2023-03-02T08:21:05.625Z,102105.42
2023-03-02T08:22:06.289Z,102105.09
2023-03-02T08:23:07.272Z,102105.38
2023-03-02T08:24:07.259Z,102104.71
2023-03-02T08:25:07.874Z,102104.80
2023-03-02T08:26:08.430Z,102104.67
2023-03-02T08:27:08.850Z,102104.42
2023-03-02T08:28:09.231Z,102104.28
2023-03-02T08:29:09.574Z,102105.03
2023-03-02T08:30:10.052Z,102105.22
2023-03-02T08:31:10.714Z,102104.91
2023-03-02T08:32:11.165Z,102105.63
2023-03-02T08:33:11.772Z,102105.22
2023-03-02T08:34:12.123Z,102104.84
2023-03-02T08:35:12.615Z,102105.02
2023-03-02T08:36:12.786Z,102104.64
2023-03-02T08:37:13.540Z,102104.27
2023-03-02T08:38:14.220Z,102103.86
2023-03-02T08:39:14.804Z,102104.08
2023-03-02T08:40:15.137Z,102103.92
2023-03-02T08:41:15.434Z,102103.64
2023-03-02T08:42:15.940Z,102103.00
2023-03-02T08:43:16.928Z,102102.45
2023-03-02T08:44:16.973Z,102101.73
2023-03-02T08:45:17.474Z,102101.37
2023-03-02T08:46:18.563Z,102101.25
2023-03-02T08:47:18.699Z,102100.63
2023-03-02T08:48:19.132Z,102099.94
2023-03-02T08:49:19.117Z,102100.14
2023-03-02T08:49:28.324Z,102102.42
2023-03-02T08:50:29.008Z,102091.48
2023-03-02T08:51:29.087Z,102091.16
2023-03-02T08:52:29.695Z,102091.16
2023-03-02T08:53:30.347Z,102090.82
2023-03-02T08:54:30.927Z,102090.16
2023-03-02T08:55:34.745Z,102089.25
2023-03-02T08:56:31.951Z,102089.30
2023-03-02T08:57:31.796Z,102088.34
2023-03-02T08:58:32.097Z,102087.78
2023-03-02T08:59:32.298Z,102086.88
2023-03-02T09:00:32.955Z,102086.05
2023-03-02T09:01:34.050Z,102086.13
2023-03-02T09:02:34.614Z,102085.98
2023-03-02T09:03:35.649Z,102086.56
2023-03-02T09:04:35.758Z,102087.20
2023-03-02T09:05:36.251Z,102087.75
2023-03-02T09:06:37.082Z,102088.20
2023-03-02T09:07:37.283Z,102089.40
2023-03-02T09:08:37.857Z,102090.94
2023-03-02T09:09:38.832Z,102092.06
2023-03-02T09:10:39.642Z,102093.36
2023-03-02T09:11:40.406Z,102094.15
2023-03-02T09:12:40.902Z,102095.83
2023-03-02T09:13:41.024Z,102097.45
2023-03-02T09:14:41.787Z,102098.97
2023-03-02T09:15:41.927Z,102100.14
2023-03-02T09:16:42.037Z,102101.48
2023-03-02T09:16:55.754Z,102090.97
2023-03-02T09:17:55.654Z,102117.29
2023-03-02T09:18:56.188Z,102117.44
2023-03-02T09:19:56.596Z,102116.97
2023-03-02T09:20:57.033Z,102117.13
2023-03-02T09:21:57.361Z,102116.72
2023-03-02T09:22:58.161Z,102116.80
2023-03-02T09:23:59.140Z,102116.78
2023-03-02T09:25:00.174Z,102116.59
2023-03-02T09:26:01.138Z,102117.06
2023-03-02T09:27:01.350Z,102117.89
2023-03-02T09:28:01.564Z,102117.64
2023-03-02T09:29:01.671Z,102117.84
2023-03-02T09:30:02.622Z,102117.78
2023-03-02T09:31:03.296Z,102117.80
2023-03-02T09:32:04.251Z,102118.05
2023-03-02T09:33:05.391Z,102117.89
2023-03-02T09:34:05.108Z,102117.84
2023-03-02T09:35:05.204Z,102118.34
2023-03-02T09:36:06.143Z,102118.11
2023-03-02T09:37:06.136Z,102118.14
2023-03-02T09:38:06.755Z,102118.64
2023-03-02T09:39:06.978Z,102118.72
2023-03-02T09:40:07.286Z,102118.58
2023-03-02T09:41:08.133Z,102118.52
2023-03-02T09:42:09.038Z,102118.48
2023-03-02T09:42:17.704Z,102118.66
2023-03-02T09:43:18.606Z,102120.72
2023-03-02T09:44:19.256Z,102120.55
2023-03-02T09:45:19.823Z,102120.42
2023-03-02T09:46:20.771Z,102120.02
2023-03-02T09:47:34.618Z,102119.08
2023-03-02T09:48:21.258Z,102119.05
2023-03-02T09:49:22.193Z,102118.77
2023-03-02T09:50:22.782Z,102118.33
2023-03-02T09:51:22.936Z,102117.80
2023-03-02T09:52:23.843Z,102117.05
2023-03-02T09:53:24.391Z,102116.48
2023-03-02T09:54:24.899Z,102116.05
2023-03-02T09:55:25.604Z,102115.42
2023-03-02T09:56:26.197Z,102114.44
2023-03-02T09:57:26.878Z,102114.39
2023-03-02T09:58:27.586Z,102113.80
2023-03-02T09:59:28.476Z,102113.23
2023-03-02T10:00:28.929Z,102113.16
2023-03-02T10:01:29.383Z,102113.61
2023-03-02T10:02:30.002Z,102114.50
2023-03-02T10:03:30.853Z,102114.25
2023-03-02T10:04:31.684Z,102114.25
2023-03-02T10:05:32.146Z,102113.80
2023-03-02T10:06:33.059Z,102113.31
2023-03-02T10:07:33.340Z,102113.30
2023-03-02T10:08:33.716Z,102113.52
2023-03-02T10:09:34.200Z,102113.91
2023-03-02T10:10:34.821Z,102114.47
2023-03-02T10:11:35.471Z,102115.53
2023-03-02T10:12:36.068Z,102116.12
2023-03-02T10:13:36.704Z,102116.11
2023-03-02T10:13:47.388Z,102125.33
2023-03-02T10:14:46.061Z,102123.82
2023-03-02T10:15:46.989Z,102123.00
2023-03-02T10:16:46.796Z,102122.83
2023-03-02T10:17:47.540Z,102121.83
2023-03-02T10:18:48.286Z,102121.05
2023-03-02T10:19:48.858Z,102120.30
2023-03-02T10:20:49.490Z,102119.61
2023-03-02T10:21:50.384Z,102119.11
2023-03-02T10:22:50.743Z,102118.49
2023-03-02T10:23:51.098Z,102117.33
2023-03-02T10:24:51.770Z,102116.89
2023-03-02T10:25:52.762Z,102116.39
2023-03-02T10:26:53.596Z,102115.27
2023-03-02T10:27:54.151Z,102115.06
2023-03-02T10:28:54.751Z,102113.88
2023-03-02T10:29:55.363Z,102113.28
2023-03-02T10:30:55.873Z,102112.50
2023-03-02T10:31:56.424Z,102111.56
2023-03-02T10:32:56.944Z,102110.86
2023-03-02T10:33:57.873Z,102109.67
2023-03-02T10:34:58.285Z,102108.70
2023-03-02T10:35:58.910Z,102108.26
2023-03-02T10:36:59.473Z,102106.83
2023-03-02T10:38:00.290Z,102106.00
2023-03-02T10:39:00.668Z,102104.86
2023-03-02T10:40:01.383Z,102103.87
2023-03-02T10:41:01.909Z,102102.77
2023-03-02T10:42:02.790Z,102101.60
2023-03-02T10:43:03.173Z,102100.55
2023-03-02T10:44:03.630Z,102099.28
2023-03-02T10:45:04.144Z,102097.77
2023-03-02T10:46:04.739Z,102097.20
2023-03-02T10:47:05.309Z,102096.06
2023-03-02T10:47:20.121Z,102081.02
2023-03-02T10:48:18.268Z,102080.01
2023-03-02T10:49:21.033Z,102079.47
2023-03-02T10:50:19.007Z,102079.48
2023-03-02T10:51:19.572Z,102079.21
2023-03-02T10:52:26.574Z,102079.30
2023-03-02T10:53:20.936Z,102079.20
2023-03-02T10:54:21.665Z,102078.59
2023-03-02T10:55:21.719Z,102078.34
2023-03-02T10:56:22.169Z,102077.81
2023-03-02T10:57:23.826Z,102076.57
2023-03-02T10:58:23.503Z,102076.06
2023-03-02T10:59:24.149Z,102075.76
2023-03-02T11:00:24.924Z,102075.56
2023-03-02T11:01:25.963Z,102074.92
2023-03-02T11:02:26.466Z,102073.91
2023-03-02T11:03:26.769Z,102073.38
2023-03-02T11:04:27.356Z,102072.91
2023-03-02T11:05:27.920Z,102071.83
2023-03-02T11:06:28.154Z,102071.41
2023-03-02T11:07:28.999Z,102071.24
2023-03-02T11:08:29.770Z,102070.39
2023-03-02T11:09:30.649Z,102069.64
2023-03-02T11:10:31.194Z,102069.30
2023-03-02T11:11:32.137Z,102068.52
2023-03-02T11:12:32.283Z,102067.89